Time;durP1;ratioP1;P1;durP2;ratioP2;P2;SDS_P1;SDS_P2;PMS_P1;PMS_P2;Temp;Humidity;BMP_temperature;BMP_pressure;BME280_temperature;BME280_humidity;BME280_pressure;Samples;Min_cycle;Max_cycle;Signal;HPM_P1;HPM_P2
2021/03/11 00:03:07;;;;;;;15.02;13.35;;;;;;;8.24;63.73;99668.41;10344315;28;20518;-61
2021/03/11 00:08:09;;;;;;;15.52;13.32;;;;;;;8.23;64.13;99661.44;10343207;28;20058;-61
2021/03/11 00:13:10;;;;;;;14.82;12.75;;;;;;;8.03;65.66;99645.31;10341129;28;20054;-61
2021/03/11 00:18:13;;;;;;;15.52;12.30;;;;;;;7.94;66.32;99656.63;10337441;28;20057;-63
2021/03/11 00:23:14;;;;;;;15.90;12.38;;;;;;;7.88;65.90;99642.06;10342923;28;20131;-62
2021/03/11 00:28:15;;;;;;;14.25;10.73;;;;;;;7.85;65.36;99623.75;10341610;28;20132;-61
2021/03/11 00:33:17;;;;;;;13.18;10.82;;;;;;;7.88;66.08;99617.34;10342529;28;20054;-60
2021/03/11 00:38:18;;;;;;;13.80;11.50;;;;;;;7.84;66.40;99602.69;10341930;28;20058;-61
2021/03/11 00:43:20;;;;;;;13.02;10.93;;;;;;;7.84;66.18;99595.56;10339567;28;20050;-60
2021/03/11 00:48:21;;;;;;;11.27;9.93;;;;;;;7.79;65.80;99582.69;10335618;28;20632;-62
2021/03/11 00:53:22;;;;;;;14.88;11.50;;;;;;;7.77;65.91;99571.34;10340575;28;20392;-61
2021/03/11 00:58:24;;;;;;;12.07;10.18;;;;;;;7.73;65.20;99551.38;10342682;28;20057;-61
2021/03/11 01:03:25;;;;;;;12.35;10.25;;;;;;;7.72;65.81;99549.69;10333478;28;20082;-61
2021/03/11 01:08:26;;;;;;;12.88;10.25;;;;;;;7.69;66.38;99528.75;10341435;28;20045;-61
2021/03/11 01:13:28;;;;;;;14.95;11.55;;;;;;;7.59;67.19;99501.31;10336069;28;20041;-60
2021/03/11 01:18:29;;;;;;;12.68;11.38;;;;;;;7.55;67.32;99497.22;10336377;28;20206;-60
2021/03/11 01:23:30;;;;;;;12.02;10.68;;;;;;;7.44;68.38;99483.03;10339577;28;20388;-60
2021/03/11 01:28:32;;;;;;;10.80;9.70;;;;;;;7.39;68.60;99466.66;10335357;28;20062;-61
2021/03/11 01:33:33;;;;;;;13.60;10.48;;;;;;;7.25;69.71;99469.56;10339404;28;20061;-61
2021/03/11 01:38:34;;;;;;;11.35;9.80;;;;;;;7.31;69.57;99452.34;10338914;28;20052;-60
2021/03/11 01:43:35;;;;;;;12.88;10.45;;;;;;;7.30;69.40;99434.81;10336170;28;20177;-59
2021/03/11 01:48:37;;;;;;;13.50;10.65;;;;;;;7.31;69.96;99424.09;10340995;28;20115;-59
2021/03/11 01:53:38;;;;;;;12.65;9.70;;;;;;;7.30;70.36;99411.81;10341580;28;20046;-59
2021/03/11 01:58:40;;;;;;;10.88;9.38;;;;;;;7.38;69.78;99398.78;10341163;28;20056;-60
2021/03/11 02:03:41;;;;;;;14.05;10.57;;;;;;;7.31;70.38;99381.75;10339737;28;20146;-61
2021/03/11 02:08:42;;;;;;;13.25;9.90;;;;;;;7.32;70.55;99367.50;10331957;28;20443;-61
2021/03/11 02:13:49;;;;;;;11.18;9.85;;;;;;;7.35;70.74;99343.44;10343244;28;20053;-60
2021/03/11 02:18:55;;;;;;;12.55;9.05;;;;;;;7.49;69.79;99328.22;10334503;28;20237;-60
2021/03/11 02:24:22;;;;;;;10.88;9.32;;;;;;;7.52;68.16;99325.31;10338570;28;20114;-61
2021/03/11 02:29:30;;;;;;;10.98;9.35;;;;;;;7.51;67.70;99307.78;10330996;28;20037;-60
2021/03/11 02:34:38;;;;;;;12.10;8.55;;;;;;;7.57;66.98;99297.50;10340841;28;20096;-62
2021/03/11 02:39:43;;;;;;;9.73;8.73;;;;;;;7.62;66.75;99299.75;10341592;28;20065;-60
2021/03/11 02:44:45;;;;;;;12.40;8.73;;;;;;;7.67;66.49;99279.03;10333472;28;20038;-60
2021/03/11 02:49:47;;;;;;;11.90;9.38;;;;;;;7.65;66.07;99259.78;10339802;28;20104;-60
2021/03/11 02:54:50;;;;;;;10.45;8.50;;;;;;;7.70;66.35;99262.88;10348684;28;20054;-60
2021/03/11 02:59:53;;;;;;;9.10;7.70;;;;;;;7.66;65.78;99240.28;10348214;28;20057;-60
2021/03/11 03:04:56;;;;;;;12.13;8.77;;;;;;;7.71;65.18;99234.59;10348952;28;20108;-61
2021/03/11 03:09:58;;;;;;;12.25;9.35;;;;;;;7.75;65.30;99213.00;10348056;28;20080;-61
2021/03/11 03:14:59;;;;;;;10.25;8.18;;;;;;;7.81;64.13;99211.63;10349973;28;20120;-60
2021/03/11 03:20:06;;;;;;;12.25;9.02;;;;;;;7.84;64.28;99203.44;10343217;28;20112;-60
2021/03/11 03:25:12;;;;;;;10.85;8.63;;;;;;;7.81;63.94;99202.81;10347447;28;20570;-60
2021/03/11 03:30:16;;;;;;;10.40;8.80;;;;;;;7.84;63.29;99199.94;10347030;28;20471;-60
2021/03/11 03:35:18;;;;;;;10.43;9.30;;;;;;;7.78;63.18;99199.47;10356845;28;20104;-60
2021/03/11 03:40:22;;;;;;;10.48;9.05;;;;;;;7.91;63.14;99201.06;10348865;28;20080;-60
2021/03/11 03:45:27;;;;;;;9.20;8.07;;;;;;;7.95;63.33;99207.78;10349651;28;20049;-60
2021/03/11 03:50:31;;;;;;;9.68;7.88;;;;;;;8.02;63.19;99219.56;10348671;28;20073;-59
2021/03/11 03:55:35;;;;;;;10.35;8.27;;;;;;;8.02;63.11;99198.34;10344758;28;20121;-60
2021/03/11 04:00:36;;;;;;;10.73;8.15;;;;;;;8.05;63.20;99189.31;10340598;28;20575;-60
2021/03/11 04:05:39;;;;;;;10.25;8.05;;;;;;;8.05;62.79;99192.78;10355541;28;20498;-61
2021/03/11 04:10:42;;;;;;;10.38;8.93;;;;;;;8.10;62.99;99179.94;10347096;28;20141;-61
2021/03/11 04:15:44;;;;;;;10.93;8.57;;;;;;;8.11;63.04;99175.50;10348347;28;20670;-61
2021/03/11 04:20:46;;;;;;;10.10;8.50;;;;;;;8.16;62.37;99175.94;10344273;28;20473;-61
2021/03/11 04:25:48;;;;;;;9.50;8.45;;;;;;;8.08;62.85;99178.44;10346733;28;20568;-60
2021/03/11 04:30:50;;;;;;;14.43;8.98;;;;;;;8.11;62.70;99176.34;10343655;28;20131;-61
2021/03/11 04:35:52;;;;;;;8.02;6.82;;;;;;;8.14;63.04;99175.25;10375109;22;20580;-65
2021/03/11 04:40:54;;;;;;;12.18;8.55;;;;;;;8.24;63.09;99162.00;10341626;28;20046;-64
2021/03/11 04:45:56;;;;;;;9.80;7.60;;;;;;;8.21;62.88;99135.75;10332643;28;20547;-65
2021/03/11 04:50:59;;;;;;;9.18;7.20;;;;;;;8.22;63.37;99140.09;10348491;28;20057;-64
2021/03/11 04:56:04;;;;;;;10.80;9.50;;;;;;;8.39;62.78;99146.56;10347851;28;20514;-65
2021/03/11 05:01:12;;;;;;;12.00;7.70;;;;;;;8.42;62.75;99135.66;10340457;28;20054;-64
2021/03/11 05:06:15;;;;;;;10.45;7.85;;;;;;;8.52;63.29;99127.78;10340875;28;20354;-65
2021/03/11 05:11:16;;;;;;;9.55;7.20;;;;;;;8.52;63.87;99114.50;10333339;28;20289;-65
2021/03/11 05:16:17;;;;;;;7.88;7.10;;;;;;;8.61;64.13;99111.03;10335649;28;20046;-65
2021/03/11 05:21:19;;;;;;;9.55;6.57;;;;;;;8.53;64.17;99089.63;10331305;28;20136;-65
2021/03/11 05:26:31;;;;;;;9.73;7.70;;;;;;;8.61;64.11;99073.88;10339934;28;20042;-65
2021/03/11 05:31:34;;;;;;;8.88;7.13;;;;;;;8.69;64.24;99070.53;10338405;28;20125;-64
2021/03/11 05:36:37;;;;;;;8.00;6.50;;;;;;;8.80;63.93;99059.78;10344498;28;20046;-65
2021/03/11 05:41:43;;;;;;;9.10;6.82;;;;;;;8.75;64.19;99077.91;10340973;28;20384;-65
2021/03/11 05:46:45;;;;;;;9.70;7.28;;;;;;;8.77;64.44;99063.53;10346666;28;20134;-65
2021/03/11 05:51:47;;;;;;;15.70;7.82;;;;;;;8.75;64.31;99041.63;10343486;28;20130;-65
2021/03/11 05:56:48;;;;;;;9.95;6.65;;;;;;;8.78;64.79;99038.69;10324779;28;20051;-65
2021/03/11 06:01:51;;;;;;;7.13;6.28;;;;;;;8.74;65.24;99055.03;10343405;28;20046;-64
2021/03/11 06:06:53;;;;;;;9.32;6.32;;;;;;;8.74;67.13;99039.13;10347180;28;20129;-63
2021/03/11 06:11:56;;;;;;;9.90;6.85;;;;;;;8.56;68.94;99023.09;10316878;28;20050;-63
2021/03/11 06:17:05;;;;;;;7.75;6.03;;;;;;;8.50;69.62;99011.22;10343113;28;20072;-63
2021/03/11 06:22:06;;;;;;;7.10;6.40;;;;;;;8.67;68.82;98985.78;10340532;28;20141;-63
2021/03/11 06:27:08;;;;;;;9.07;6.93;;;;;;;8.63;69.17;98979.06;10349346;28;20050;-64
2021/03/11 06:32:11;;;;;;;7.80;6.40;;;;;;;8.64;69.23;98976.28;10328934;28;20057;-63
2021/03/11 06:37:14;;;;;;;6.55;5.88;;;;;;;8.54;69.41;98970.19;10348140;28;20045;-63
2021/03/11 06:42:24;;;;;;;8.55;6.47;;;;;;;8.56;69.44;98985.94;10351402;28;20489;-64
2021/03/11 06:47:26;;;;;;;7.38;6.57;;;;;;;8.67;69.71;98996.38;10355226;28;20046;-64
2021/03/11 06:52:28;;;;;;;8.68;6.15;;;;;;;8.67;69.75;98991.91;10349885;28;20042;-64
2021/03/11 06:57:41;;;;;;;7.53;6.70;;;;;;;8.68;69.98;99003.38;10352747;28;20052;-64
2021/03/11 07:02:55;;;;;;;7.78;5.80;;;;;;;8.66;70.07;98984.09;10346645;28;20069;-63
2021/03/11 07:08:15;;;;;;;6.83;5.90;;;;;;;8.67;70.15;98977.81;10335939;28;20066;-64
2021/03/11 07:13:16;;;;;;;8.13;5.25;;;;;;;8.79;70.25;98989.94;10350388;28;20054;-64
2021/03/11 07:18:24;;;;;;;5.55;4.80;;;;;;;8.84;70.35;98985.06;10350838;28;20053;-63
2021/03/11 07:23:26;;;;;;;5.43;4.63;;;;;;;8.89;70.12;98978.44;10345807;28;20056;-65
2021/03/11 07:28:29;;;;;;;6.07;5.28;;;;;;;9.02;69.88;98985.13;10342479;28;20058;-64
2021/03/11 07:33:36;;;;;;;6.05;3.97;;;;;;;9.04;69.96;98966.41;10324032;28;21097;-63
2021/03/11 07:38:38;;;;;;;5.40;4.28;;;;;;;9.07;70.48;98990.00;10338149;28;20437;-64
2021/03/11 07:43:40;;;;;;;5.72;3.42;;;;;;;9.04;70.58;98963.75;10339650;28;20061;-63
2021/03/11 07:48:41;;;;;;;3.75;3.28;;;;;;;9.08;71.24;98985.53;10344421;28;20117;-67
2021/03/11 07:53:44;;;;;;;6.07;3.28;;;;;;;9.13;71.27;99002.72;10307317;28;20071;-65
2021/03/11 07:58:47;;;;;;;20.42;4.57;;;;;;;9.14;71.72;98966.38;10334235;28;20054;-65
2021/03/11 08:03:50;;;;;;;4.30;3.15;;;;;;;9.18;72.05;98987.16;10326588;28;20053;-66
2021/03/11 08:08:53;;;;;;;5.07;3.00;;;;;;;9.05;72.60;98978.69;10328651;28;20050;-65
2021/03/11 08:14:15;;;;;;;4.28;3.20;;;;;;;9.12;74.58;98998.38;10329787;28;20057;-64
2021/03/11 08:19:37;;;;;;;4.88;4.15;;;;;;;9.08;75.92;98999.63;10347253;28;20070;-65
2021/03/11 08:24:42;;;;;;;5.43;3.60;;;;;;;9.00;75.86;98976.47;10328486;28;20077;-64
2021/03/11 08:29:43;;;;;;;5.03;3.33;;;;;;;9.00;75.40;98941.13;10336749;28;20049;-64
2021/03/11 08:34:44;;;;;;;3.92;3.47;;;;;;;9.01;75.24;98942.81;10340385;28;20074;-65
2021/03/11 08:39:47;;;;;;;3.30;2.97;;;;;;;9.18;75.04;98938.53;10344383;28;20053;-65
2021/03/11 08:44:49;;;;;;;4.07;3.13;;;;;;;9.27;75.22;98928.88;10348207;28;20078;-66
2021/03/11 08:49:51;;;;;;;4.75;3.40;;;;;;;9.21;74.62;98917.00;10340324;28;20424;-68
2021/03/11 08:54:52;;;;;;;3.88;3.33;;;;;;;9.38;74.71;98934.81;10353997;28;20050;-67
2021/03/11 08:59:54;;;;;;;3.83;3.03;;;;;;;9.36;74.94;98925.31;10329767;28;20046;-68
2021/03/11 09:04:56;;;;;;;4.80;3.13;;;;;;;9.37;75.28;98914.53;10322706;28;20042;-66
2021/03/11 09:09:58;;;;;;;4.35;3.45;;;;;;;9.42;74.91;98916.75;10331848;28;20224;-65
2021/03/11 09:15:01;;;;;;;4.15;3.28;;;;;;;9.44;74.78;98896.19;10333944;28;20042;-66
2021/03/11 09:20:06;;;;;;;5.45;3.67;;;;;;;9.53;74.78;98895.31;10339648;28;20052;-65
2021/03/11 09:25:13;;;;;;;6.97;3.42;;;;;;;9.57;74.45;98909.13;10332533;28;20129;-66
2021/03/11 09:30:20;;;;;;;4.03;3.55;;;;;;;9.60;74.57;98910.66;10328696;28;20082;-67
2021/03/11 09:35:25;;;;;;;5.80;3.38;;;;;;;9.67;74.31;98909.06;10343864;28;20104;-65
2021/03/11 09:40:34;;;;;;;5.32;4.35;;;;;;;9.70;75.21;98903.44;10337023;28;20069;-65
2021/03/11 09:45:52;;;;;;;6.32;3.67;;;;;;;9.70;75.78;98898.13;10347174;28;20049;-66
2021/03/11 09:50:56;;;;;;;6.47;3.30;;;;;;;9.62;76.42;98895.38;10327917;28;20068;-65
2021/03/11 09:55:59;;;;;;;4.93;4.07;;;;;;;9.67;75.71;98888.63;10350448;28;20347;-66
2021/03/11 10:01:00;;;;;;;4.22;3.63;;;;;;;9.72;77.02;98890.84;10354839;28;20128;-65
2021/03/11 10:06:06;;;;;;;4.28;3.72;;;;;;;9.74;79.09;98875.56;10345339;28;20049;-65
2021/03/11 10:11:12;;;;;;;5.28;4.68;;;;;;;9.77;80.28;98872.59;10328264;28;20149;-65
2021/03/11 10:16:16;;;;;;;5.28;3.83;;;;;;;9.74;80.49;98864.94;10336576;28;20049;-65
2021/03/11 10:21:17;;;;;;;4.95;3.92;;;;;;;9.79;79.71;98865.31;10344830;28;20135;-64
2021/03/11 10:26:21;;;;;;;4.68;4.10;;;;;;;9.81;79.33;98852.72;10355337;28;20061;-64
2021/03/11 10:31:23;;;;;;;5.43;4.13;;;;;;;9.87;78.70;98849.44;10351617;28;20108;-65
2021/03/11 10:36:26;;;;;;;5.70;4.15;;;;;;;9.65;78.81;98810.06;10332645;28;20160;-66
2021/03/11 10:41:27;;;;;;;5.80;4.57;;;;;;;9.86;78.75;98828.34;10344589;28;20042;-66
2021/03/11 10:46:29;;;;;;;4.70;3.45;;;;;;;10.00;78.62;98808.34;10353276;28;20092;-66
2021/03/11 10:51:32;;;;;;;7.78;4.00;;;;;;;10.02;78.41;98806.38;10339829;28;20046;-66
2021/03/11 10:56:33;;;;;;;3.95;3.28;;;;;;;10.04;78.13;98796.41;10349581;28;20054;-66
2021/03/11 11:01:40;;;;;;;4.82;3.50;;;;;;;10.23;77.58;98780.25;10349907;28;20052;-66
2021/03/11 11:06:41;;;;;;;4.93;4.20;;;;;;;10.37;77.35;98772.69;10363386;28;20061;-65
2021/03/11 11:11:42;;;;;;;4.10;2.95;;;;;;;10.41;76.34;98758.09;10347358;28;20076;-65
2021/03/11 11:16:43;;;;;;;4.20;3.38;;;;;;;10.53;76.00;98754.16;10345492;28;20516;-65
2021/03/11 11:21:45;;;;;;;2.60;2.40;;;;;;;10.67;75.29;98726.09;10328861;28;20050;-65
2021/03/11 11:26:46;;;;;;;3.22;2.13;;;;;;;10.98;74.07;98732.69;10339573;28;20245;-64
2021/03/11 11:31:48;;;;;;;2.40;2.05;;;;;;;11.22;73.30;98730.03;10318357;28;20042;-64
2021/03/11 11:36:49;;;;;;;2.88;2.33;;;;;;;11.18;74.47;98725.22;10352210;28;20078;-66
2021/03/11 11:41:51;;;;;;;3.67;2.50;;;;;;;11.19;76.34;98748.19;10345328;28;20432;-66
2021/03/11 11:46:52;;;;;;;2.65;2.08;;;;;;;11.12;78.42;98745.34;10333440;28;20491;-65
2021/03/11 11:51:53;;;;;;;4.60;2.30;;;;;;;11.16;78.34;98761.84;10346548;28;20062;-66
2021/03/11 11:56:55;;;;;;;3.78;2.00;;;;;;;11.19;80.34;98772.16;10326276;28;20459;-65
2021/03/11 12:01:56;;;;;;;1.92;1.30;;;;;;;10.95;83.48;98747.97;10356716;28;20239;-64
2021/03/11 12:06:58;;;;;;;3.15;2.13;;;;;;;11.00;84.19;98725.34;10354194;28;20120;-66
2021/03/11 12:11:59;;;;;;;2.13;1.77;;;;;;;11.11;82.21;98747.19;10331876;28;20129;-65
2021/03/11 12:17:01;;;;;;;2.42;2.05;;;;;;;11.79;77.52;98699.88;10326903;28;20042;-66
2021/03/11 12:22:02;;;;;;;2.85;1.40;;;;;;;13.74;67.61;98705.38;10324522;28;20057;-65
2021/03/11 12:27:03;;;;;;;2.25;1.38;;;;;;;12.69;70.38;98679.25;10327507;28;20497;-66
2021/03/11 12:32:05;;;;;;;2.15;1.42;;;;;;;12.31;71.71;98701.28;10329014;28;20141;-66
2021/03/11 12:37:08;;;;;;;2.78;1.23;;;;;;;12.70;68.15;98671.06;10319411;28;20061;-65
2021/03/11 12:42:09;;;;;;;2.53;1.10;;;;;;;18.97;52.13;98673.97;10312372;28;20073;-66
2021/03/11 12:47:12;;;;;;;2.08;0.90;;;;;;;19.03;46.20;98673.94;10326853;28;20046;-64
2021/03/11 12:52:14;;;;;;;1.17;0.73;;;;;;;24.96;35.18;98678.13;10324423;28;20046;-65
2021/03/11 12:57:15;;;;;;;2.47;0.80;;;;;;;26.62;31.03;98667.38;10323043;28;20070;-65
2021/03/11 13:02:16;;;;;;;0.88;0.57;;;;;;;29.42;27.19;98645.47;10324587;28;20137;-65
2021/03/11 13:07:18;;;;;;;1.85;0.70;;;;;;;30.05;24.99;98641.06;10336290;28;20072;-66
2021/03/11 13:12:19;;;;;;;1.20;0.25;;;;;;;29.09;24.84;98647.91;10326404;28;20057;-66
2021/03/11 13:17:21;;;;;;;;;;;;;;;31.88;21.77;98618.63;10326682;28;20053;-65
2021/03/11 13:22:22;;;;;;;2.28;0.63;;;;;;;30.76;21.88;98609.19;10336130;28;19922;-65
2021/03/11 13:27:23;;;;;;;1.45;0.65;;;;;;;30.35;22.97;98598.72;10332613;28;20092;-66
2021/03/11 13:32:25;;;;;;;0.57;0.20;;;;;;;28.49;25.32;98595.94;10330996;28;20045;-67
2021/03/11 13:37:27;;;;;;;1.10;0.30;;;;;;;28.09;25.45;98622.38;10330174;28;20129;-64
2021/03/11 13:42:28;;;;;;;2.45;0.50;;;;;;;29.35;24.83;98593.75;10325255;28;20137;-64
2021/03/11 13:47:29;;;;;;;1.80;0.20;;;;;;;25.26;29.66;98586.94;10327983;28;20049;-64
2021/03/11 13:52:31;;;;;;;2.30;0.40;;;;;;;21.28;37.31;98604.34;10328546;28;20119;-65
2021/03/11 13:57:32;;;;;;;1.13;0.40;;;;;;;20.19;40.48;98597.13;10328413;28;20528;-63
2021/03/11 14:02:33;;;;;;;1.75;0.63;;;;;;;21.75;35.88;98573.78;10326173;28;20137;-63
2021/03/11 14:07:35;;;;;;;1.00;0.30;;;;;;;23.15;32.64;98569.97;10330274;28;20537;-65
2021/03/11 14:12:36;;;;;;;1.25;0.30;;;;;;;22.23;33.56;98557.19;10329806;28;20108;-64
2021/03/11 14:17:38;;;;;;;1.80;0.20;;;;;;;22.93;30.68;98563.34;10318354;28;20046;-64
2021/03/11 14:22:40;;;;;;;1.48;0.40;;;;;;;18.91;37.07;98584.00;10323378;28;20449;-65
2021/03/11 14:27:41;;;;;;;1.80;0.32;;;;;;;17.14;42.07;98585.81;10315471;28;20165;-64
2021/03/11 14:32:43;;;;;;;1.38;0.43;;;;;;;16.54;44.02;98571.44;10324285;28;20062;-64
2021/03/11 14:37:44;;;;;;;2.22;1.02;;;;;;;16.29;46.04;98579.22;10327876;28;20100;-64
2021/03/11 14:42:46;;;;;;;3.42;0.80;;;;;;;17.04;44.93;98557.69;10328734;28;20045;-63
2021/03/11 14:47:47;;;;;;;2.85;0.63;;;;;;;16.99;42.68;98557.47;10340680;28;20054;-62
2021/03/11 14:52:49;;;;;;;1.35;0.30;;;;;;;16.59;42.87;98548.31;10328364;28;20061;-63
2021/03/11 14:57:50;;;;;;;1.52;0.57;;;;;;;16.39;42.77;98583.19;10336793;28;20050;-65
2021/03/11 15:02:52;;;;;;;1.50;0.50;;;;;;;16.10;44.12;98587.00;10334532;28;20543;-63
2021/03/11 15:07:53;;;;;;;2.88;0.55;;;;;;;15.66;46.99;98626.56;10332442;28;20045;-64
2021/03/11 15:12:55;;;;;;;3.03;0.68;;;;;;;14.85;52.12;98659.91;10337770;28;20085;-64
2021/03/11 15:17:57;;;;;;;2.30;0.68;;;;;;;14.12;56.23;98633.06;10320564;28;20048;-63
2021/03/11 15:22:59;;;;;;;7.38;1.17;;;;;;;13.03;62.35;98670.00;10332297;28;20088;-66
2021/03/11 15:28:00;;;;;;;6.05;1.52;;;;;;;13.49;65.60;98645.13;10341095;28;20141;-62
2021/03/11 15:33:03;;;;;;;4.13;1.00;;;;;;;12.99;64.54;98650.03;10340291;28;20141;-64
2021/03/11 15:38:05;;;;;;;2.40;0.82;;;;;;;13.30;64.76;98644.59;10346277;28;20251;-63
2021/03/11 15:43:06;;;;;;;4.93;1.45;;;;;;;13.35;63.63;98615.50;10341026;28;20136;-66
2021/03/11 15:48:07;;;;;;;1.85;0.77;;;;;;;13.11;64.72;98618.38;10339259;28;20302;-62
2021/03/11 15:53:09;;;;;;;2.78;0.80;;;;;;;13.13;65.82;98617.19;10336169;28;20053;-63
2021/03/11 15:58:11;;;;;;;3.75;1.00;;;;;;;13.36;64.78;98606.50;10337442;28;20328;-63
2021/03/11 16:03:16;;;;;;;1.80;1.08;;;;;;;13.49;63.91;98624.56;10334924;28;20520;-63
2021/03/11 16:08:18;;;;;;;3.13;2.25;;;;;;;13.29;62.77;98596.69;10344978;28;20076;-65
2021/03/11 16:13:19;;;;;;;2.80;1.40;;;;;;;13.23;63.78;98606.25;10331229;28;20554;-65
2021/03/11 16:18:20;;;;;;;5.28;1.52;;;;;;;13.12;63.29;98607.53;10350479;28;20948;-66
2021/03/11 16:23:22;;;;;;;3.40;1.65;;;;;;;13.19;64.79;98618.31;10346392;28;20129;-64
2021/03/11 16:28:23;;;;;;;5.60;1.20;;;;;;;13.17;66.04;98612.31;10336736;28;20069;-65
2021/03/11 16:33:24;;;;;;;3.30;1.40;;;;;;;13.21;65.77;98625.13;10336168;28;20070;-64
2021/03/11 16:38:26;;;;;;;4.53;1.40;;;;;;;13.04;61.74;98615.59;10340400;28;20224;-64
2021/03/11 16:43:28;;;;;;;4.50;1.40;;;;;;;12.76;61.41;98642.84;10336737;28;20458;-63
2021/03/11 16:48:29;;;;;;;2.78;1.05;;;;;;;12.46;63.54;98649.84;10341271;28;20064;-65
2021/03/11 16:53:30;;;;;;;4.32;1.52;;;;;;;12.22;64.24;98653.44;10331598;28;20563;-64
2021/03/11 16:58:32;;;;;;;3.38;1.20;;;;;;;11.86;62.76;98673.41;10336483;28;20052;-64
2021/03/11 17:03:33;;;;;;;4.85;1.20;;;;;;;11.27;64.89;98700.25;10332451;28;20600;-64
2021/03/11 17:08:51;;;;;;;4.43;1.02;;;;;;;11.29;65.96;98692.94;10343836;28;20038;-64
2021/03/11 17:13:52;;;;;;;4.05;1.00;;;;;;;11.10;64.89;98688.75;10329703;28;20097;-61
2021/03/11 17:18:54;;;;;;;4.68;1.13;;;;;;;10.94;65.22;98679.78;10335492;28;20491;-61
2021/03/11 17:23:56;;;;;;;5.30;1.35;;;;;;;10.82;65.99;98675.72;10331794;28;20108;-65
2021/03/11 17:28:57;;;;;;;6.43;1.30;;;;;;;10.98;66.22;98663.47;10322275;28;20050;-64
2021/03/11 17:33:58;;;;;;;3.75;1.63;;;;;;;11.18;65.33;98698.59;10352832;22;21557;-67
2021/03/11 17:39:11;;;;;;;2.97;1.45;;;;;;;11.29;63.99;98719.59;10366352;28;20834;-67
2021/03/11 17:44:18;;;;;;;3.85;1.40;;;;;;;11.37;63.22;98740.06;10358041;28;20135;-67
2021/03/11 17:49:19;;;;;;;5.57;1.05;;;;;;;11.40;63.08;98763.72;10368151;28;20139;-68
2021/03/11 17:54:21;;;;;;;3.97;1.60;;;;;;;11.47;61.60;98772.72;10377898;28;20124;-68
2021/03/11 17:59:22;;;;;;;4.78;1.42;;;;;;;11.32;60.73;98762.69;10376016;28;20045;-69
2021/03/11 18:04:24;;;;;;;5.75;1.63;;;;;;;11.41;61.01;98760.03;10377985;28;20049;-69
2021/03/11 18:09:34;;;;;;;3.47;1.60;;;;;;;11.46;60.64;98771.03;10378749;28;20500;-69
2021/03/11 18:14:35;;;;;;;4.50;1.30;;;;;;;11.58;60.79;98782.19;10369896;28;20061;-70
2021/03/11 18:19:36;;;;;;;5.63;1.00;;;;;;;11.64;60.27;98790.34;10381669;28;20150;-69
2021/03/11 18:24:37;;;;;;;4.75;2.38;;;;;;;11.59;63.46;98843.34;10387563;28;20060;-69
2021/03/11 18:29:39;;;;;;;3.40;1.80;;;;;;;11.18;67.22;98839.75;10388073;28;20136;-69
2021/03/11 18:34:40;;;;;;;4.60;1.65;;;;;;;10.79;70.83;98849.06;10387428;28;20512;-72
2021/03/11 18:39:56;;;;;;;6.05;1.60;;;;;;;10.59;72.72;98843.16;10385255;28;20123;-68
2021/03/11 18:44:57;;;;;;;4.43;2.00;;;;;;;10.50;74.42;98878.69;10374614;28;20136;-69
2021/03/11 18:49:58;;;;;;;7.15;1.92;;;;;;;10.26;75.25;98878.31;10375861;28;20586;-69
2021/03/11 18:54:59;;;;;;;6.47;1.98;;;;;;;10.07;75.80;98899.78;10384437;28;20124;-68
2021/03/11 19:00:01;;;;;;;4.43;1.45;;;;;;;10.20;76.27;98896.72;10376437;28;20132;-69
2021/03/11 19:05:02;;;;;;;6.38;2.00;;;;;;;9.99;78.21;98918.34;10383899;28;20081;-69
2021/03/11 19:10:21;;;;;;;4.32;1.35;;;;;;;9.96;75.83;98919.47;10382925;28;20057;-69
2021/03/11 19:15:23;;;;;;;2.58;0.68;;;;;;;9.70;71.77;98880.34;10374875;28;20120;-69
2021/03/11 19:20:28;;;;;;;4.35;2.17;;;;;;;9.82;71.49;98857.06;10382754;28;20068;-68
2021/03/11 19:25:30;;;;;;;2.25;1.52;;;;;;;9.80;72.01;98837.75;10384457;28;20045;-67
2021/03/11 19:30:34;;;;;;;2.25;1.45;;;;;;;9.97;70.80;98861.81;10382266;28;20253;-68
2021/03/11 19:35:36;;;;;;;1.77;0.50;;;;;;;9.85;70.22;98879.84;10385032;28;20571;-69
2021/03/11 19:40:46;;;;;;;2.55;1.23;;;;;;;9.52;70.63;98896.28;10384572;28;20065;-69
2021/03/11 19:45:48;;;;;;;2.45;0.70;;;;;;;9.35;71.28;98907.72;10395530;28;20045;-68
2021/03/11 19:50:51;;;;;;;2.28;0.60;;;;;;;9.27;72.27;98928.88;10399427;28;20076;-68
2021/03/11 19:55:54;;;;;;;2.38;0.77;;;;;;;9.12;72.30;98915.25;10384386;28;20624;-67
2021/03/11 20:00:55;;;;;;;3.13;0.70;;;;;;;9.03;73.04;98923.09;10405673;28;20134;-66
2021/03/11 20:05:56;;;;;;;3.72;0.85;;;;;;;9.11;72.73;98913.56;10398214;28;20064;-66
2021/03/11 20:11:10;;;;;;;2.95;0.80;;;;;;;9.11;72.98;98935.66;10393701;28;20072;-70
2021/03/11 20:16:11;;;;;;;2.67;0.73;;;;;;;8.95;72.78;98938.09;10374474;28;20061;-68
2021/03/11 20:21:13;;;;;;;3.85;0.93;;;;;;;8.77;71.61;98946.81;10378771;28;20049;-69
2021/03/11 20:26:14;;;;;;;4.63;0.85;;;;;;;8.73;71.63;98956.00;10380767;28;20130;-67
2021/03/11 20:31:16;;;;;;;1.90;0.77;;;;;;;8.72;70.92;98972.06;10381953;28;20064;-68
2021/03/11 20:36:17;;;;;;;3.95;1.30;;;;;;;8.69;71.29;98983.81;10378232;28;20065;-67
2021/03/11 20:41:37;;;;;;;2.10;0.80;;;;;;;8.58;71.29;98990.13;10379024;28;20050;-68
2021/03/11 20:46:42;;;;;;;5.32;1.00;;;;;;;8.62;72.38;98998.63;10372257;28;20168;-67
2021/03/11 20:51:45;;;;;;;4.90;2.65;;;;;;;8.63;71.16;99003.81;10376468;28;20053;-70
2021/03/11 20:56:47;;;;;;;2.58;1.10;;;;;;;8.60;71.62;99019.16;10383460;28;20415;-67
2021/03/11 21:01:48;;;;;;;4.78;1.35;;;;;;;8.64;71.70;99013.41;10382438;28;20126;-68
2021/03/11 21:06:49;;;;;;;2.45;1.20;;;;;;;8.70;71.34;99019.97;10375535;28;20060;-68
2021/03/11 21:12:02;;;;;;;5.80;1.52;;;;;;;8.68;71.79;99014.00;10379307;28;20399;-68
2021/03/11 21:17:04;;;;;;;2.85;1.13;;;;;;;8.62;72.50;99022.50;10380740;28;20864;-68
2021/03/11 21:22:05;;;;;;;2.78;0.70;;;;;;;8.53;72.66;99016.22;10380464;28;20145;-68
2021/03/11 21:27:07;;;;;;;5.00;1.73;;;;;;;8.52;72.74;99037.59;10380368;28;20511;-68
2021/03/11 21:32:09;;;;;;;2.20;1.00;;;;;;;8.63;72.19;99048.03;10381697;28;20075;-68
2021/03/11 21:37:10;;;;;;;4.05;0.90;;;;;;;8.57;72.75;99064.53;10379761;28;20080;-67
2021/03/11 21:42:23;;;;;;;3.83;1.10;;;;;;;8.51;72.26;99065.09;10379970;28;20056;-69
2021/03/11 21:47:24;;;;;;;2.65;1.08;;;;;;;8.70;72.37;99080.16;10379625;28;20777;-69
2021/03/11 21:52:25;;;;;;;4.97;1.60;;;;;;;8.64;71.56;99078.91;10379265;28;20057;-70
2021/03/11 21:57:27;;;;;;;4.15;1.70;;;;;;;8.64;72.13;99084.22;10394279;28;20144;-69
2021/03/11 22:02:28;;;;;;;3.95;1.10;;;;;;;8.53;73.10;99065.78;10391911;28;20480;-69
2021/03/11 22:07:29;;;;;;;4.53;1.50;;;;;;;8.62;72.89;99072.91;10389996;28;20144;-71
2021/03/11 22:12:46;;;;;;;2.67;1.58;;;;;;;8.59;72.97;99081.16;10394022;28;20057;-69
2021/03/11 22:17:49;;;;;;;2.63;1.40;;;;;;;8.52;72.75;99088.00;10396463;28;20050;-71
2021/03/11 22:22:52;;;;;;;3.72;1.70;;;;;;;8.46;72.86;99095.50;10388067;28;20072;-70
2021/03/11 22:27:53;;;;;;;4.05;1.58;;;;;;;8.46;72.56;99110.59;10386016;28;20069;-69
2021/03/11 22:32:55;;;;;;;5.43;2.05;;;;;;;8.36;72.99;99120.31;10396704;28;20045;-69
2021/03/11 22:37:56;;;;;;;5.82;2.40;;;;;;;8.37;72.47;99128.13;10409564;28;20042;-68
2021/03/11 22:43:15;;;;;;;4.57;2.00;;;;;;;8.46;71.55;99126.50;10387129;28;20507;-70
2021/03/11 22:48:17;;;;;;;5.10;1.57;;;;;;;8.52;71.77;99103.91;10392663;28;20139;-70
2021/03/11 22:53:19;;;;;;;6.97;2.17;;;;;;;8.45;72.15;99107.09;10407818;28;20053;-70
2021/03/11 22:58:21;;;;;;;5.30;1.75;;;;;;;8.28;73.12;99086.53;10408142;28;20133;-71
2021/03/11 23:03:22;;;;;;;6.35;2.03;;;;;;;8.41;72.42;99081.81;10375374;28;20135;-70
2021/03/11 23:08:24;;;;;;;4.88;2.15;;;;;;;8.34;71.96;99070.06;10372984;28;20056;-69
2021/03/11 23:13:33;;;;;;;2.92;1.30;;;;;;;8.37;71.37;99079.56;10376004;28;20229;-68
2021/03/11 23:18:36;;;;;;;6.93;1.65;;;;;;;8.30;70.48;99096.03;10393219;28;20118;-69
2021/03/11 23:23:48;;;;;;;4.18;1.00;;;;;;;8.17;68.84;99070.72;10399064;28;20107;-69
2021/03/11 23:28:49;;;;;;;1.92;0.70;;;;;;;8.07;68.89;99094.59;10393306;28;20045;-69
2021/03/11 23:33:52;;;;;;;1.20;0.55;;;;;;;7.97;68.41;99081.28;10377839;28;20128;-69
2021/03/11 23:38:53;;;;;;;1.05;0.30;;;;;;;7.84;68.16;99101.91;10390846;28;20124;-69